createdAt,value
2018-06-05T00:02:03.833Z,81.70
2018-06-05T00:04:36.846Z,82.40
2018-06-05T00:07:09.938Z,82.40
2018-06-05T00:09:42.941Z,82.40
2018-06-05T00:12:15.945Z,82.80
2018-06-05T00:14:48.957Z,82.80
2018-06-05T00:17:23.134Z,82.30
2018-06-05T00:22:28.989Z,82.50
2018-06-05T00:25:01.994Z,83.00
2018-06-05T00:27:34.998Z,82.90
2018-06-05T00:30:08.026Z,82.80
2018-06-05T00:32:41.047Z,82.80
2018-06-05T00:35:14.034Z,82.50
2018-06-05T00:37:47.022Z,82.70
2018-06-05T00:40:20.026Z,82.80
2018-06-05T00:42:53.078Z,82.70
2018-06-05T00:45:26.073Z,83.30
2018-06-05T00:47:59.109Z,83.30
2018-06-05T00:50:32.097Z,83.40
2018-06-05T00:53:05.121Z,83.40
2018-06-05T00:55:38.118Z,83.40
2018-06-05T00:58:11.153Z,83.40
2018-06-05T01:00:44.133Z,83.50
2018-06-05T01:03:17.129Z,84.00
2018-06-05T01:05:50.122Z,83.80
2018-06-05T01:08:23.129Z,84.50
2018-06-05T01:10:56.130Z,84.30
2018-06-05T01:13:29.149Z,84.30
2018-06-05T01:16:02.146Z,84.60
2018-06-05T01:18:35.161Z,84.60
2018-06-05T01:21:08.192Z,84.60
2018-06-05T01:23:41.214Z,85.20
2018-06-05T01:26:14.202Z,85.70
2018-06-05T01:28:47.209Z,85.70
2018-06-05T01:31:20.207Z,86.00
2018-06-05T01:33:53.258Z,86.20
2018-06-05T01:36:26.582Z,86.70
2018-06-05T01:38:59.607Z,86.90
2018-06-05T01:41:32.661Z,87.40
2018-06-05T01:44:05.674Z,86.70
2018-06-05T01:46:38.680Z,87.00
2018-06-05T01:49:11.700Z,87.00
2018-06-05T01:51:44.698Z,87.80
2018-06-05T01:54:17.710Z,87.60
2018-06-05T01:56:50.715Z,87.90
2018-06-05T01:59:23.750Z,89.20
2018-06-05T02:01:56.739Z,88.20
2018-06-05T02:04:29.762Z,88.60
2018-06-05T02:07:02.759Z,88.80
2018-06-05T02:09:35.803Z,89.80
2018-06-05T02:12:08.814Z,88.70
2018-06-05T02:14:41.842Z,88.90
2018-06-05T02:17:14.838Z,88.90
2018-06-05T02:19:47.850Z,89.30
2018-06-05T02:22:20.830Z,89.30
2018-06-05T02:24:53.835Z,89.80
2018-06-05T02:27:26.842Z,90.50
2018-06-05T02:29:59.911Z,90.10
2018-06-05T02:32:32.891Z,90.00
2018-06-05T02:35:05.919Z,90.40
2018-06-05T02:37:38.923Z,90.40
2018-06-05T02:40:11.943Z,91.20
2018-06-05T02:42:44.924Z,91.00
2018-06-05T02:45:17.931Z,91.50
2018-06-05T02:47:50.922Z,91.30
2018-06-05T02:50:23.953Z,91.90
2018-06-05T02:52:56.960Z,91.70
2018-06-05T02:55:30.027Z,91.50
2018-06-05T02:58:03.019Z,91.90
2018-06-05T03:00:36.039Z,91.90
2018-06-05T03:03:09.050Z,91.70
2018-06-05T03:05:42.039Z,91.70
2018-06-05T03:08:15.032Z,91.80
2018-06-05T03:10:48.026Z,91.80
2018-06-05T03:13:21.083Z,91.90
2018-06-05T03:15:54.103Z,91.70
2018-06-05T03:18:27.105Z,92.20
2018-06-05T03:21:00.114Z,91.50
2018-06-05T03:23:33.102Z,91.70
2018-06-05T03:26:06.134Z,92.30
2018-06-05T03:28:39.166Z,91.70
2018-06-05T03:31:12.263Z,91.70
2018-06-05T03:33:45.278Z,92.00
2018-06-05T03:36:18.310Z,92.00
2018-06-05T03:38:51.315Z,92.80
2018-06-05T03:41:24.342Z,92.80
2018-06-05T03:43:57.357Z,92.10
2018-06-05T03:49:03.212Z,92.30
2018-06-05T03:51:36.250Z,92.50
2018-06-05T03:54:09.249Z,92.70
2018-06-05T03:56:42.284Z,92.60
2018-06-05T03:59:15.299Z,92.90
2018-06-05T04:01:48.318Z,92.70
2018-06-05T04:04:21.340Z,92.40
2018-06-05T04:06:54.359Z,92.40
2018-06-05T04:09:27.378Z,92.30
2018-06-05T04:12:00.374Z,92.30
2018-06-05T04:14:33.374Z,92.30
2018-06-05T04:17:06.392Z,92.60
2018-06-05T04:19:39.370Z,92.40
2018-06-05T04:22:12.387Z,92.20
2018-06-05T04:24:45.390Z,92.30
2018-06-05T04:27:18.391Z,92.40
2018-06-05T04:29:51.375Z,92.20
2018-06-05T04:32:24.375Z,92.70
2018-06-05T04:34:57.525Z,92.10
2018-06-05T04:37:30.587Z,92.20
2018-06-05T04:40:03.575Z,91.80
2018-06-05T04:42:36.598Z,91.80
2018-06-05T04:45:09.582Z,91.40
2018-06-05T04:47:42.576Z,91.40
2018-06-05T04:50:15.571Z,91.30
2018-06-05T04:52:48.594Z,91.50
2018-06-05T04:55:21.578Z,91.30
2018-06-05T04:57:54.565Z,91.60
2018-06-05T05:00:27.578Z,91.20
2018-06-05T05:03:00.594Z,91.00
2018-06-05T05:05:33.598Z,91.30
2018-06-05T05:08:06.598Z,90.90
2018-06-05T05:10:39.582Z,91.30
2018-06-05T05:13:12.590Z,91.00
2018-06-05T05:15:45.590Z,91.00
2018-06-05T05:18:18.598Z,91.00
2018-06-05T05:20:51.594Z,90.90
2018-06-05T05:23:24.644Z,90.60
2018-06-05T05:25:57.658Z,90.70
2018-06-05T05:28:30.678Z,90.60
2018-06-05T05:31:03.688Z,90.80
2018-06-05T05:33:36.674Z,90.70
2018-06-05T05:36:09.722Z,90.50
2018-06-05T05:38:42.743Z,90.50
2018-06-05T05:41:15.927Z,90.80
2018-06-05T05:43:48.974Z,90.50
2018-06-05T05:46:21.962Z,90.70
2018-06-05T05:48:55.196Z,91.00
2018-06-05T05:51:28.434Z,91.50
2018-06-05T05:54:01.455Z,92.00
2018-06-05T05:56:34.455Z,91.10
2018-06-05T05:59:07.510Z,91.50
2018-06-05T06:01:40.506Z,91.00
2018-06-05T06:04:13.519Z,90.70
2018-06-05T06:06:46.514Z,91.10
2018-06-05T06:09:19.532Z,90.80
2018-06-05T06:11:52.515Z,90.80
2018-06-05T06:14:25.527Z,90.80
2018-06-05T06:16:58.515Z,90.70
2018-06-05T06:19:31.521Z,90.60
2018-06-05T06:22:04.631Z,90.20
2018-06-05T06:24:37.634Z,90.30
2018-06-05T06:27:10.631Z,90.30
2018-06-05T06:29:43.627Z,90.10
2018-06-05T06:34:49.478Z,90.20
2018-06-05T06:37:22.476Z,89.30
2018-06-05T06:39:55.486Z,89.30
2018-06-05T06:42:28.522Z,89.50
2018-06-05T06:45:01.554Z,89.30
2018-06-05T06:47:34.550Z,89.80
2018-06-05T06:50:07.587Z,88.80
2018-06-05T06:52:40.582Z,88.90
2018-06-05T06:55:13.583Z,88.10
2018-06-05T06:57:46.588Z,88.30
2018-06-05T07:00:19.618Z,88.80
2018-06-05T07:02:52.603Z,87.70
2018-06-05T07:05:25.595Z,88.40
2018-06-05T07:10:31.427Z,88.60
2018-06-05T07:13:04.418Z,88.20
2018-06-05T07:15:37.454Z,88.50
2018-06-05T07:18:26.672Z,87.80
2018-06-05T07:21:01.187Z,88.50
2018-06-05T07:23:34.174Z,87.70
2018-06-05T07:26:07.191Z,87.30
2018-06-05T07:31:29.191Z,87.40
2018-06-05T07:34:02.191Z,86.60
2018-06-05T07:36:35.211Z,87.20
2018-06-05T07:39:12.383Z,87.00
2018-06-05T07:42:05.168Z,86.50
2018-06-05T07:44:38.163Z,86.50
2018-06-05T07:50:28.390Z,86.50
2018-06-05T07:53:01.682Z,86.50
2018-06-05T07:55:34.680Z,85.80
2018-06-05T07:58:07.686Z,86.20
2018-06-05T08:00:41.943Z,85.90
2018-06-05T08:03:23.363Z,86.50
2018-06-05T08:06:08.002Z,86.60
2018-06-05T08:08:58.740Z,85.80
2018-06-05T08:11:32.678Z,86.20
2018-06-05T08:14:05.706Z,86.40
2018-06-05T08:16:39.315Z,86.10
2018-06-05T08:19:30.186Z,86.30
2018-06-05T08:22:03.190Z,85.90
2018-06-05T08:24:36.191Z,85.60
2018-06-05T08:27:09.183Z,86.20
2018-06-05T08:35:02.575Z,86.40
2018-06-05T08:37:35.563Z,85.60
2018-06-05T08:40:08.574Z,84.40
2018-06-05T08:42:50.445Z,85.40
2018-06-05T08:45:28.487Z,84.80
2018-06-05T08:48:01.480Z,84.90
2018-06-05T08:50:34.478Z,85.20
2018-06-05T08:53:07.482Z,85.30
2018-06-05T08:58:29.763Z,85.50
2018-06-05T09:01:02.758Z,85.20
2018-06-05T09:03:35.759Z,84.10
2018-06-05T09:06:08.799Z,84.60
2018-06-05T09:11:32.108Z,83.80
2018-06-05T09:14:05.126Z,83.80
2018-06-05T09:16:38.136Z,83.70
2018-06-05T09:19:12.614Z,83.30
2018-06-05T09:21:55.895Z,83.10
2018-06-05T09:24:34.633Z,82.30
2018-06-05T09:27:07.647Z,83.00
2018-06-05T09:29:41.272Z,83.40
2018-06-05T09:32:29.451Z,81.40
2018-06-05T09:35:02.444Z,80.70
2018-06-05T09:37:35.453Z,81.50
2018-06-05T09:40:08.451Z,81.50
2018-06-05T09:42:41.442Z,81.80
2018-06-05T09:47:59.903Z,80.00
2018-06-05T09:50:32.886Z,80.90
2018-06-05T09:53:05.890Z,81.40
2018-06-05T09:55:41.022Z,80.80
2018-06-05T10:00:58.973Z,79.50
2018-06-05T10:03:31.974Z,77.50
2018-06-05T10:06:04.985Z,76.80
2018-06-05T10:08:37.979Z,75.40
2018-06-05T10:11:12.230Z,76.00
2018-06-05T10:16:35.699Z,73.80
2018-06-05T10:19:08.706Z,73.70
2018-06-05T10:21:56.723Z,73.60
2018-06-05T10:24:30.418Z,73.10
2018-06-05T10:27:03.426Z,73.20
2018-06-05T10:29:36.426Z,72.70
2018-06-05T10:32:11.265Z,72.60
2018-06-05T10:34:59.714Z,72.00
2018-06-05T10:37:32.711Z,72.10
2018-06-05T10:40:05.824Z,71.10
2018-06-05T10:42:38.778Z,71.70
2018-06-05T10:45:28.000Z,70.40
2018-06-05T10:48:01.133Z,72.20
2018-06-05T10:50:38.547Z,71.70
2018-06-05T10:55:59.030Z,71.20
2018-06-05T10:58:32.030Z,70.80
2018-06-05T11:01:05.975Z,71.10
2018-06-05T11:03:38.962Z,70.90
2018-06-05T11:09:13.989Z,71.50
2018-06-05T11:12:30.837Z,71.70
2018-06-05T11:15:04.163Z,72.50
2018-06-05T11:17:38.366Z,73.00
2018-06-05T11:20:14.391Z,72.70
2018-06-05T11:23:11.426Z,73.60
2018-06-05T11:28:29.930Z,75.10
2018-06-05T11:31:02.915Z,75.10
2018-06-05T11:33:35.917Z,75.20
2018-06-05T11:36:08.953Z,74.60
2018-06-05T11:38:59.455Z,73.80
2018-06-05T11:41:32.446Z,74.50
2018-06-05T11:44:05.438Z,74.70
2018-06-05T11:46:38.442Z,71.50
2018-06-05T11:49:32.663Z,74.40
2018-06-05T11:52:05.654Z,69.90
2018-06-05T11:54:38.691Z,68.90
2018-06-05T12:00:03.864Z,70.70
2018-06-05T12:03:00.246Z,70.00
2018-06-05T12:05:41.099Z,70.00
2018-06-05T12:11:36.391Z,68.70
2018-06-05T12:14:10.359Z,70.00
2018-06-05T12:16:43.658Z,68.60
2018-06-05T12:22:11.698Z,68.50
2018-06-05T12:27:29.466Z,66.80
2018-06-05T12:30:02.459Z,66.10
2018-06-05T12:32:35.453Z,62.40
2018-06-05T12:35:08.487Z,65.40
2018-06-05T12:41:13.201Z,67.40
2018-06-05T12:44:08.494Z,63.90
2018-06-05T12:46:59.983Z,67.10
2018-06-05T12:49:33.531Z,66.70
2018-06-05T12:52:06.530Z,66.40
2018-06-05T12:54:41.078Z,66.20
2018-06-05T13:00:03.366Z,66.70
2018-06-05T13:02:36.358Z,65.60
2018-06-05T13:05:09.430Z,66.90
2018-06-05T13:07:55.061Z,66.10
2018-06-05T13:10:29.651Z,66.60
2018-06-05T13:13:02.652Z,65.20
2018-06-05T13:15:35.633Z,66.10
2018-06-05T13:18:08.630Z,66.20
2018-06-05T13:21:04.094Z,67.00
2018-06-05T13:23:37.096Z,66.80
2018-06-05T13:28:58.357Z,66.20
2018-06-05T13:31:31.352Z,65.80
2018-06-05T13:34:04.526Z,64.80
2018-06-05T13:36:37.554Z,59.60
2018-06-05T13:42:04.351Z,62.90
2018-06-05T13:44:37.358Z,62.20
2018-06-05T13:47:17.241Z,61.80
2018-06-05T13:49:59.507Z,60.20
2018-06-05T13:52:32.498Z,59.40
2018-06-05T13:55:05.511Z,58.60
2018-06-05T13:57:38.502Z,59.10
2018-06-05T14:00:29.059Z,56.40
2018-06-05T14:03:02.047Z,55.80
2018-06-05T14:05:35.058Z,56.60
2018-06-05T14:08:08.055Z,56.60
2018-06-05T14:13:31.858Z,57.80
2018-06-05T14:16:05.078Z,57.80
2018-06-05T14:18:38.085Z,57.50
2018-06-05T14:21:40.635Z,55.70
2018-06-05T14:27:00.549Z,56.60
2018-06-05T14:29:33.547Z,56.40
2018-06-05T14:32:06.546Z,55.60
2018-06-05T14:34:39.543Z,56.50
2018-06-05T14:37:12.587Z,56.40
2018-06-05T14:42:30.759Z,56.90
2018-06-05T14:45:03.783Z,56.90
2018-06-05T14:47:36.757Z,56.90
2018-06-05T14:50:14.197Z,56.40
2018-06-05T14:52:57.688Z,57.30
2018-06-05T14:55:30.743Z,57.60
2018-06-05T15:00:56.693Z,57.80
2018-06-05T15:03:29.687Z,55.10
2018-06-05T15:06:02.684Z,53.80
2018-06-05T15:08:35.693Z,55.00
2018-06-05T15:11:08.687Z,55.10
2018-06-05T15:16:28.682Z,52.60
2018-06-05T15:19:01.679Z,52.80
2018-06-05T15:21:34.667Z,51.60
2018-06-05T15:24:07.659Z,51.80
2018-06-05T15:26:40.713Z,50.00
2018-06-05T15:29:14.198Z,49.30
2018-06-05T15:31:59.350Z,48.90
2018-06-05T15:34:32.378Z,50.10
2018-06-05T15:37:05.357Z,44.10
2018-06-05T15:42:28.479Z,46.60
2018-06-05T15:45:02.148Z,46.70
2018-06-05T15:47:35.653Z,46.40
2018-06-05T15:50:08.670Z,46.40
2018-06-05T15:52:44.480Z,45.20
2018-06-05T15:55:29.215Z,44.60
2018-06-05T15:58:10.792Z,46.00
2018-06-05T16:00:57.880Z,46.30
2018-06-05T16:03:31.499Z,46.90
2018-06-05T16:06:04.606Z,46.30
2018-06-05T16:08:37.605Z,47.90
2018-06-05T16:11:15.448Z,47.00
2018-06-05T16:13:59.639Z,47.70
2018-06-05T16:16:32.640Z,48.00
2018-06-05T16:19:05.623Z,47.10
2018-06-05T16:21:38.627Z,48.20
2018-06-05T16:24:27.511Z,48.20
2018-06-05T16:27:00.751Z,48.10
2018-06-05T16:29:33.743Z,47.30
2018-06-05T16:32:06.823Z,43.90
2018-06-05T16:34:45.250Z,44.90
2018-06-05T16:37:28.347Z,44.30
2018-06-05T16:40:01.343Z,45.00
2018-06-05T16:42:34.355Z,44.60
2018-06-05T16:45:07.335Z,46.20
2018-06-05T16:47:41.573Z,45.70
2018-06-05T16:53:00.862Z,45.90
2018-06-05T16:55:33.870Z,46.60
2018-06-05T16:58:06.875Z,45.40
2018-06-05T17:00:40.909Z,45.60
2018-06-05T17:05:58.531Z,44.30
2018-06-05T17:08:31.575Z,45.20
2018-06-05T17:11:04.611Z,44.00
2018-06-05T17:13:37.623Z,43.40
2018-06-05T17:16:10.611Z,42.20
2018-06-05T17:21:28.898Z,40.90
2018-06-05T17:24:10.211Z,41.80
2018-06-05T17:26:54.871Z,39.40
2018-06-05T17:29:29.448Z,40.60
2018-06-05T17:32:02.462Z,41.60
2018-06-05T17:34:35.566Z,42.10
2018-06-05T17:37:08.831Z,40.70
2018-06-05T17:39:44.187Z,38.90
2018-06-05T17:42:25.588Z,39.50
2018-06-05T17:44:59.210Z,40.00
2018-06-05T17:47:32.193Z,37.20
2018-06-05T17:50:06.658Z,38.10
2018-06-05T17:52:40.030Z,36.90
2018-06-05T17:55:27.256Z,37.60
2018-06-05T17:58:00.266Z,38.70
2018-06-05T18:00:33.279Z,39.00
2018-06-05T18:03:06.287Z,37.30
2018-06-05T18:05:39.438Z,39.10
2018-06-05T18:08:34.306Z,38.00
2018-06-05T18:11:07.299Z,39.50
2018-06-05T18:13:40.378Z,40.30
2018-06-05T18:16:24.256Z,40.20
2018-06-05T18:18:58.168Z,39.10
2018-06-05T18:21:31.556Z,36.70
2018-06-05T18:24:05.798Z,37.70
2018-06-05T18:26:39.194Z,37.10
2018-06-05T18:29:13.540Z,37.50
2018-06-05T18:31:50.478Z,38.00
2018-06-05T18:34:40.647Z,39.30
2018-06-05T18:37:15.877Z,40.40
2018-06-05T18:40:00.805Z,41.00
2018-06-05T18:42:34.026Z,42.70
2018-06-05T18:45:07.212Z,43.90
2018-06-05T18:47:44.478Z,43.60
2018-06-05T18:50:25.814Z,43.50
2018-06-05T18:52:59.462Z,44.10
2018-06-05T18:55:32.682Z,44.90
2018-06-05T18:58:05.946Z,44.80
2018-06-05T19:00:39.409Z,43.90
2018-06-05T19:03:14.204Z,45.50
2018-06-05T19:05:58.311Z,44.60
2018-06-05T19:08:31.750Z,46.00
2018-06-05T19:11:05.414Z,47.40
2018-06-05T19:13:38.463Z,47.80
2018-06-05T19:16:13.542Z,48.30
2018-06-05T19:21:30.274Z,51.00
2018-06-05T19:24:03.628Z,51.30
2018-06-05T19:26:37.010Z,51.40
2018-06-05T19:29:11.533Z,51.80
2018-06-05T19:31:45.364Z,52.20
2018-06-05T19:34:33.943Z,52.00
2018-06-05T19:37:07.560Z,52.20
2018-06-05T19:39:42.347Z,52.60
2018-06-05T19:44:58.360Z,52.60
2018-06-05T19:47:31.569Z,53.00
2018-06-05T19:50:05.045Z,53.20
2018-06-05T19:52:38.731Z,54.00
2018-06-05T19:55:14.926Z,53.50
2018-06-05T19:57:59.635Z,53.70
2018-06-05T20:00:32.639Z,52.80
2018-06-05T20:03:05.642Z,52.60
2018-06-05T20:05:38.647Z,52.60
2018-06-05T20:08:19.523Z,52.30
2018-06-05T20:11:00.335Z,51.70
2018-06-05T20:13:33.486Z,51.10
2018-06-05T20:16:06.968Z,51.30
2018-06-05T20:18:40.547Z,51.00
2018-06-05T20:21:26.320Z,51.00
2018-06-05T20:24:00.333Z,51.20
2018-06-05T20:26:33.722Z,51.30
2018-06-05T20:29:06.703Z,51.40
2018-06-05T20:31:40.989Z,51.70
2018-06-05T20:37:06.417Z,52.50
2018-06-05T20:39:39.772Z,52.30
2018-06-05T20:42:31.250Z,52.30
2018-06-05T20:45:05.543Z,53.30
2018-06-05T20:47:38.649Z,53.70
2018-06-05T20:50:13.430Z,53.00
2018-06-05T20:52:58.973Z,53.50
2018-06-05T20:55:32.384Z,52.90
2018-06-05T20:58:05.981Z,52.90
2018-06-05T21:00:38.991Z,53.20
2018-06-05T21:03:26.940Z,53.10
2018-06-05T21:06:02.279Z,54.10
2018-06-05T21:08:35.286Z,53.70
2018-06-05T21:11:08.270Z,54.10
2018-06-05T21:13:51.910Z,54.50
2018-06-05T21:16:29.759Z,55.70
2018-06-05T21:19:04.774Z,56.40
2018-06-05T21:21:37.758Z,57.20
2018-06-05T21:24:10.797Z,57.90
2018-06-05T21:26:44.811Z,57.80
2018-06-05T21:29:31.392Z,57.80
2018-06-05T21:32:04.383Z,57.80
2018-06-05T21:34:37.377Z,57.80
2018-06-05T21:37:16.215Z,58.30
2018-06-05T21:40:13.337Z,58.30
2018-06-05T21:42:56.979Z,58.10
2018-06-05T21:45:30.194Z,58.00
2018-06-05T21:48:03.178Z,58.30
2018-06-05T21:50:36.167Z,58.50
2018-06-05T21:53:09.166Z,58.30
2018-06-05T21:58:28.770Z,58.50
2018-06-05T22:01:10.430Z,58.30
2018-06-05T22:03:53.174Z,58.50
2018-06-05T22:06:29.987Z,58.40
2018-06-05T22:11:37.851Z,58.90
2018-06-05T22:14:14.743Z,59.40
2018-06-05T22:17:05.511Z,59.40
2018-06-05T22:19:38.498Z,59.30
2018-06-05T22:22:11.537Z,59.90
2018-06-05T22:24:58.528Z,60.00
2018-06-05T22:27:31.527Z,60.10
2018-06-05T22:30:05.537Z,60.30
2018-06-05T22:32:38.539Z,60.40
2018-06-05T22:38:06.872Z,60.30
2018-06-05T22:40:39.836Z,60.50
2018-06-05T22:43:34.607Z,60.50
2018-06-05T22:46:07.603Z,60.50
2018-06-05T22:54:03.332Z,61.10
2018-06-05T22:56:36.322Z,61.30
2018-06-05T22:59:09.324Z,61.20
2018-06-05T23:01:59.318Z,61.10
2018-06-05T23:04:32.315Z,61.20
2018-06-05T23:07:05.306Z,61.10
2018-06-05T23:09:38.319Z,60.90
2018-06-05T23:15:00.053Z,61.40
2018-06-05T23:17:33.051Z,61.60
2018-06-05T23:20:06.051Z,61.80
2018-06-05T23:22:39.039Z,61.60
2018-06-05T23:25:12.036Z,61.40
2018-06-05T23:27:59.822Z,61.70
2018-06-05T23:30:32.828Z,61.50
2018-06-05T23:33:05.822Z,61.60
2018-06-05T23:35:38.830Z,62.10
2018-06-05T23:38:28.635Z,62.10
2018-06-05T23:41:01.639Z,62.40
2018-06-05T23:43:34.618Z,62.50
2018-06-05T23:46:07.642Z,62.20
2018-06-05T23:48:40.862Z,62.80
2018-06-05T23:51:29.885Z,63.80
2018-06-05T23:54:02.881Z,62.30
2018-06-05T23:56:35.874Z,62.50
2018-06-05T23:59:11.889Z,62.10
